sensor_id;sensor_type;location;lat;lon;timestamp;P1;durP1;ratioP1;P2;durP2;ratioP2
28844;SDS011;15976;47.938;7.758;2023-05-10T00:00:41;3.25;;;1.00;;
28844;SDS011;15976;47.938;7.758;2023-05-10T00:03:09;1.80;;;1.10;;
28844;SDS011;15976;47.938;7.758;2023-05-10T00:05:37;1.80;;;1.00;;
28844;SDS011;15976;47.938;7.758;2023-05-10T00:08:04;2.80;;;1.10;;
28844;SDS011;15976;47.938;7.758;2023-05-10T00:10:31;1.25;;;1.00;;
28844;SDS011;15976;47.938;7.758;2023-05-10T00:12:58;2.67;;;1.10;;
28844;SDS011;15976;47.938;7.758;2023-05-10T00:15:26;1.00;;;1.00;;
28844;SDS011;15976;47.938;7.758;2023-05-10T00:17:53;1.58;;;1.00;;
28844;SDS011;15976;47.938;7.758;2023-05-10T00:20:21;1.30;;;1.02;;
28844;SDS011;15976;47.938;7.758;2023-05-10T00:22:48;3.20;;;1.10;;
28844;SDS011;15976;47.938;7.758;2023-05-10T00:25:15;1.80;;;1.20;;
28844;SDS011;15976;47.938;7.758;2023-05-10T00:27:41;1.45;;;1.10;;
28844;SDS011;15976;47.938;7.758;2023-05-10T00:30:10;4.65;;;1.40;;
28844;SDS011;15976;47.938;7.758;2023-05-10T00:32:37;1.58;;;1.08;;
28844;SDS011;15976;47.938;7.758;2023-05-10T00:35:04;1.95;;;1.02;;
28844;SDS011;15976;47.938;7.758;2023-05-10T00:37:31;4.50;;;2.05;;
28844;SDS011;15976;47.938;7.758;2023-05-10T00:39:58;1.50;;;1.33;;
28844;SDS011;15976;47.938;7.758;2023-05-10T00:42:25;1.80;;;1.17;;
28844;SDS011;15976;47.938;7.758;2023-05-10T00:44:54;5.13;;;1.30;;
28844;SDS011;15976;47.938;7.758;2023-05-10T00:47:21;3.65;;;1.40;;
28844;SDS011;15976;47.938;7.758;2023-05-10T00:49:48;1.23;;;1.13;;
28844;SDS011;15976;47.938;7.758;2023-05-10T00:52:15;2.20;;;1.65;;
28844;SDS011;15976;47.938;7.758;2023-05-10T00:54:43;3.03;;;1.20;;
28844;SDS011;15976;47.938;7.758;2023-05-10T00:57:10;5.78;;;1.30;;
28844;SDS011;15976;47.938;7.758;2023-05-10T00:59:40;1.58;;;1.08;;
28844;SDS011;15976;47.938;7.758;2023-05-10T01:02:07;2.90;;;1.38;;
28844;SDS011;15976;47.938;7.758;2023-05-10T01:04:35;2.75;;;1.33;;
28844;SDS011;15976;47.938;7.758;2023-05-10T01:07:04;1.85;;;1.27;;
28844;SDS011;15976;47.938;7.758;2023-05-10T01:09:31;3.88;;;1.20;;
28844;SDS011;15976;47.938;7.758;2023-05-10T01:11:59;3.83;;;1.20;;
28844;SDS011;15976;47.938;7.758;2023-05-10T01:14:28;3.90;;;1.50;;
28844;SDS011;15976;47.938;7.758;2023-05-10T01:16:55;1.15;;;1.05;;
28844;SDS011;15976;47.938;7.758;2023-05-10T01:19:26;2.20;;;1.15;;
28844;SDS011;15976;47.938;7.758;2023-05-10T01:38:30;2.47;;;1.33;;
28844;SDS011;15976;47.938;7.758;2023-05-10T01:46:49;1.83;;;1.60;;
28844;SDS011;15976;47.938;7.758;2023-05-10T01:49:32;1.73;;;1.30;;
28844;SDS011;15976;47.938;7.758;2023-05-10T01:52:08;2.50;;;1.33;;
28844;SDS011;15976;47.938;7.758;2023-05-10T01:54:38;1.50;;;1.30;;
28844;SDS011;15976;47.938;7.758;2023-05-10T01:59:40;2.05;;;1.30;;
28844;SDS011;15976;47.938;7.758;2023-05-10T02:02:11;2.95;;;1.40;;
28844;SDS011;15976;47.938;7.758;2023-05-10T02:04:41;3.78;;;1.60;;
28844;SDS011;15976;47.938;7.758;2023-05-10T02:07:09;2.92;;;1.38;;
28844;SDS011;15976;47.938;7.758;2023-05-10T02:09:36;4.18;;;1.45;;
28844;SDS011;15976;47.938;7.758;2023-05-10T02:12:05;2.22;;;1.50;;
28844;SDS011;15976;47.938;7.758;2023-05-10T02:14:34;2.17;;;1.25;;
28844;SDS011;15976;47.938;7.758;2023-05-10T02:17:04;2.08;;;1.20;;
28844;SDS011;15976;47.938;7.758;2023-05-10T02:19:32;3.72;;;1.48;;
28844;SDS011;15976;47.938;7.758;2023-05-10T02:22:00;1.92;;;1.50;;
28844;SDS011;15976;47.938;7.758;2023-05-10T02:24:30;1.73;;;1.40;;
28844;SDS011;15976;47.938;7.758;2023-05-10T02:27:00;1.38;;;1.20;;
28844;SDS011;15976;47.938;7.758;2023-05-10T02:29:29;2.60;;;1.85;;
28844;SDS011;15976;47.938;7.758;2023-05-10T02:31:58;1.92;;;1.27;;
28844;SDS011;15976;47.938;7.758;2023-05-10T02:34:27;2.90;;;1.80;;
28844;SDS011;15976;47.938;7.758;2023-05-10T02:36:55;2.90;;;1.67;;
28844;SDS011;15976;47.938;7.758;2023-05-10T02:39:22;2.92;;;1.50;;
28844;SDS011;15976;47.938;7.758;2023-05-10T02:41:51;4.50;;;1.40;;
28844;SDS011;15976;47.938;7.758;2023-05-10T02:44:19;3.38;;;1.42;;
28844;SDS011;15976;47.938;7.758;2023-05-10T02:46:48;3.22;;;1.50;;
28844;SDS011;15976;47.938;7.758;2023-05-10T02:49:15;2.08;;;1.52;;
28844;SDS011;15976;47.938;7.758;2023-05-10T02:51:47;2.15;;;1.73;;
28844;SDS011;15976;47.938;7.758;2023-05-10T02:54:18;2.03;;;1.73;;
28844;SDS011;15976;47.938;7.758;2023-05-10T02:56:49;3.72;;;1.52;;
28844;SDS011;15976;47.938;7.758;2023-05-10T02:59:20;2.92;;;1.35;;
28844;SDS011;15976;47.938;7.758;2023-05-10T03:01:47;7.80;;;1.67;;
28844;SDS011;15976;47.938;7.758;2023-05-10T03:04:14;1.92;;;1.52;;
28844;SDS011;15976;47.938;7.758;2023-05-10T03:06:41;2.03;;;1.70;;
28844;SDS011;15976;47.938;7.758;2023-05-10T03:09:08;3.08;;;1.65;;
28844;SDS011;15976;47.938;7.758;2023-05-10T03:17:14;7.20;;;2.03;;
28844;SDS011;15976;47.938;7.758;2023-05-10T03:19:54;5.13;;;1.80;;
28844;SDS011;15976;47.938;7.758;2023-05-10T03:22:37;2.47;;;2.00;;
28844;SDS011;15976;47.938;7.758;2023-05-10T03:25:07;8.75;;;1.77;;
28844;SDS011;15976;47.938;7.758;2023-05-10T03:27:39;4.53;;;2.15;;
28844;SDS011;15976;47.938;7.758;2023-05-10T03:30:10;2.17;;;1.90;;
28844;SDS011;15976;47.938;7.758;2023-05-10T03:32:40;1.60;;;1.38;;
28844;SDS011;15976;47.938;7.758;2023-05-10T03:35:08;3.38;;;1.70;;
28844;SDS011;15976;47.938;7.758;2023-05-10T03:37:36;3.03;;;1.58;;
28844;SDS011;15976;47.938;7.758;2023-05-10T03:40:04;2.60;;;1.70;;
28844;SDS011;15976;47.938;7.758;2023-05-10T03:42:34;1.90;;;1.70;;
28844;SDS011;15976;47.938;7.758;2023-05-10T03:45:01;1.83;;;1.73;;
28844;SDS011;15976;47.938;7.758;2023-05-10T03:47:28;2.90;;;1.50;;
28844;SDS011;15976;47.938;7.758;2023-05-10T03:49:57;3.83;;;1.60;;
28844;SDS011;15976;47.938;7.758;2023-05-10T03:52:24;4.47;;;2.00;;
28844;SDS011;15976;47.938;7.758;2023-05-10T03:54:51;2.42;;;1.52;;
28844;SDS011;15976;47.938;7.758;2023-05-10T03:57:18;2.65;;;1.80;;
28844;SDS011;15976;47.938;7.758;2023-05-10T03:59:45;1.75;;;1.65;;
28844;SDS011;15976;47.938;7.758;2023-05-10T04:02:12;1.98;;;1.70;;
28844;SDS011;15976;47.938;7.758;2023-05-10T04:04:39;4.07;;;1.50;;
28844;SDS011;15976;47.938;7.758;2023-05-10T04:07:06;1.70;;;1.60;;
28844;SDS011;15976;47.938;7.758;2023-05-10T04:09:33;2.92;;;1.90;;
28844;SDS011;15976;47.938;7.758;2023-05-10T04:12:00;5.65;;;2.85;;
28844;SDS011;15976;47.938;7.758;2023-05-10T04:14:28;5.43;;;1.80;;
28844;SDS011;15976;47.938;7.758;2023-05-10T04:16:55;4.28;;;2.30;;
28844;SDS011;15976;47.938;7.758;2023-05-10T04:19:22;1.88;;;1.77;;
28844;SDS011;15976;47.938;7.758;2023-05-10T04:21:49;3.67;;;2.17;;
28844;SDS011;15976;47.938;7.758;2023-05-10T04:24:16;3.13;;;1.58;;
28844;SDS011;15976;47.938;7.758;2023-05-10T04:26:43;2.53;;;1.70;;
28844;SDS011;15976;47.938;7.758;2023-05-10T04:29:10;3.33;;;1.63;;
28844;SDS011;15976;47.938;7.758;2023-05-10T04:31:37;3.33;;;2.40;;
28844;SDS011;15976;47.938;7.758;2023-05-10T04:34:04;2.67;;;1.95;;
28844;SDS011;15976;47.938;7.758;2023-05-10T04:36:31;3.55;;;1.70;;
28844;SDS011;15976;47.938;7.758;2023-05-10T04:39:00;2.42;;;1.75;;
28844;SDS011;15976;47.938;7.758;2023-05-10T04:41:27;4.30;;;1.70;;
28844;SDS011;15976;47.938;7.758;2023-05-10T04:43:54;5.28;;;1.90;;
28844;SDS011;15976;47.938;7.758;2023-05-10T04:46:21;4.25;;;1.77;;
28844;SDS011;15976;47.938;7.758;2023-05-10T04:48:48;2.30;;;1.90;;
28844;SDS011;15976;47.938;7.758;2023-05-10T04:51:15;2.35;;;1.90;;
28844;SDS011;15976;47.938;7.758;2023-05-10T04:53:42;2.53;;;1.85;;
28844;SDS011;15976;47.938;7.758;2023-05-10T04:56:23;4.88;;;2.00;;
28844;SDS011;15976;47.938;7.758;2023-05-10T04:58:50;2.50;;;1.95;;
28844;SDS011;15976;47.938;7.758;2023-05-10T05:01:17;4.03;;;2.25;;
28844;SDS011;15976;47.938;7.758;2023-05-10T05:03:44;3.53;;;2.08;;
28844;SDS011;15976;47.938;7.758;2023-05-10T05:06:12;2.25;;;1.92;;
28844;SDS011;15976;47.938;7.758;2023-05-10T05:08:39;2.25;;;1.85;;
28844;SDS011;15976;47.938;7.758;2023-05-10T05:11:06;3.67;;;2.10;;
28844;SDS011;15976;47.938;7.758;2023-05-10T05:13:33;3.33;;;2.13;;
28844;SDS011;15976;47.938;7.758;2023-05-10T05:16:00;3.55;;;1.98;;
28844;SDS011;15976;47.938;7.758;2023-05-10T05:18:29;3.42;;;1.73;;
28844;SDS011;15976;47.938;7.758;2023-05-10T05:20:56;3.88;;;1.77;;
28844;SDS011;15976;47.938;7.758;2023-05-10T05:23:22;1.65;;;1.55;;
28844;SDS011;15976;47.938;7.758;2023-05-10T05:25:51;1.50;;;1.40;;
28844;SDS011;15976;47.938;7.758;2023-05-10T05:28:19;2.20;;;1.90;;
28844;SDS011;15976;47.938;7.758;2023-05-10T05:30:46;4.63;;;1.63;;
28844;SDS011;15976;47.938;7.758;2023-05-10T05:33:14;7.53;;;1.83;;
28844;SDS011;15976;47.938;7.758;2023-05-10T05:35:41;4.60;;;1.73;;
28844;SDS011;15976;47.938;7.758;2023-05-10T05:38:13;2.25;;;1.35;;
28844;SDS011;15976;47.938;7.758;2023-05-10T05:40:40;4.60;;;2.00;;
28844;SDS011;15976;47.938;7.758;2023-05-10T05:43:07;8.38;;;1.90;;
28844;SDS011;15976;47.938;7.758;2023-05-10T05:45:34;2.17;;;1.42;;
28844;SDS011;15976;47.938;7.758;2023-05-10T05:48:01;4.38;;;1.40;;
28844;SDS011;15976;47.938;7.758;2023-05-10T05:50:28;3.30;;;1.38;;
28844;SDS011;15976;47.938;7.758;2023-05-10T05:52:55;3.13;;;1.42;;
28844;SDS011;15976;47.938;7.758;2023-05-10T05:55:23;2.63;;;1.42;;
28844;SDS011;15976;47.938;7.758;2023-05-10T05:57:52;2.72;;;1.40;;
28844;SDS011;15976;47.938;7.758;2023-05-10T06:00:19;2.25;;;1.30;;
28844;SDS011;15976;47.938;7.758;2023-05-10T06:02:46;2.53;;;1.48;;
28844;SDS011;15976;47.938;7.758;2023-05-10T06:05:13;1.48;;;1.30;;
28844;SDS011;15976;47.938;7.758;2023-05-10T06:07:41;2.38;;;1.58;;
28844;SDS011;15976;47.938;7.758;2023-05-10T06:10:10;3.67;;;1.55;;
28844;SDS011;15976;47.938;7.758;2023-05-10T06:12:37;1.98;;;1.50;;
28844;SDS011;15976;47.938;7.758;2023-05-10T06:15:04;5.05;;;1.60;;
28844;SDS011;15976;47.938;7.758;2023-05-10T06:17:32;4.72;;;1.80;;
28844;SDS011;15976;47.938;7.758;2023-05-10T06:19:59;4.25;;;1.65;;
28844;SDS011;15976;47.938;7.758;2023-05-10T06:22:26;4.70;;;1.85;;
28844;SDS011;15976;47.938;7.758;2023-05-10T06:24:53;3.85;;;1.73;;
28844;SDS011;15976;47.938;7.758;2023-05-10T06:27:19;3.17;;;1.75;;
28844;SDS011;15976;47.938;7.758;2023-05-10T06:29:46;3.38;;;1.77;;
28844;SDS011;15976;47.938;7.758;2023-05-10T06:32:17;4.43;;;1.75;;
28844;SDS011;15976;47.938;7.758;2023-05-10T06:34:44;6.05;;;2.22;;
28844;SDS011;15976;47.938;7.758;2023-05-10T06:37:11;4.65;;;1.90;;
28844;SDS011;15976;47.938;7.758;2023-05-10T06:39:38;4.20;;;1.80;;
28844;SDS011;15976;47.938;7.758;2023-05-10T06:42:05;4.25;;;1.90;;
28844;SDS011;15976;47.938;7.758;2023-05-10T06:44:32;6.00;;;1.80;;
28844;SDS011;15976;47.938;7.758;2023-05-10T06:46:59;3.90;;;1.80;;
28844;SDS011;15976;47.938;7.758;2023-05-10T06:49:26;2.67;;;1.65;;
28844;SDS011;15976;47.938;7.758;2023-05-10T06:51:53;5.63;;;1.70;;
28844;SDS011;15976;47.938;7.758;2023-05-10T06:54:21;6.13;;;1.90;;
28844;SDS011;15976;47.938;7.758;2023-05-10T06:56:49;1.75;;;1.60;;
28844;SDS011;15976;47.938;7.758;2023-05-10T06:59:16;6.28;;;1.85;;
28844;SDS011;15976;47.938;7.758;2023-05-10T07:01:43;7.03;;;2.28;;
28844;SDS011;15976;47.938;7.758;2023-05-10T07:04:11;5.15;;;1.80;;
28844;SDS011;15976;47.938;7.758;2023-05-10T07:06:38;2.28;;;1.70;;
28844;SDS011;15976;47.938;7.758;2023-05-10T07:09:05;2.72;;;1.67;;
28844;SDS011;15976;47.938;7.758;2023-05-10T07:11:32;3.53;;;1.80;;
28844;SDS011;15976;47.938;7.758;2023-05-10T07:13:59;7.40;;;1.80;;
28844;SDS011;15976;47.938;7.758;2023-05-10T07:16:26;2.78;;;1.98;;
28844;SDS011;15976;47.938;7.758;2023-05-10T07:18:53;3.95;;;1.58;;
28844;SDS011;15976;47.938;7.758;2023-05-10T07:21:20;3.10;;;1.80;;
28844;SDS011;15976;47.938;7.758;2023-05-10T07:23:47;4.32;;;2.13;;
28844;SDS011;15976;47.938;7.758;2023-05-10T07:26:14;3.58;;;2.03;;
28844;SDS011;15976;47.938;7.758;2023-05-10T07:28:42;5.07;;;1.60;;
28844;SDS011;15976;47.938;7.758;2023-05-10T07:31:08;4.32;;;1.88;;
28844;SDS011;15976;47.938;7.758;2023-05-10T07:33:35;2.65;;;1.70;;
28844;SDS011;15976;47.938;7.758;2023-05-10T07:36:02;3.67;;;1.80;;
28844;SDS011;15976;47.938;7.758;2023-05-10T07:38:29;3.13;;;1.83;;
28844;SDS011;15976;47.938;7.758;2023-05-10T07:40:56;2.53;;;1.80;;
28844;SDS011;15976;47.938;7.758;2023-05-10T07:43:23;3.53;;;1.55;;
28844;SDS011;15976;47.938;7.758;2023-05-10T07:45:50;4.78;;;1.73;;
28844;SDS011;15976;47.938;7.758;2023-05-10T07:48:21;5.38;;;2.10;;
28844;SDS011;15976;47.938;7.758;2023-05-10T07:50:48;4.00;;;1.90;;
28844;SDS011;15976;47.938;7.758;2023-05-10T07:53:15;3.95;;;1.75;;
28844;SDS011;15976;47.938;7.758;2023-05-10T07:55:42;5.35;;;1.77;;
28844;SDS011;15976;47.938;7.758;2023-05-10T07:58:09;3.58;;;1.67;;
28844;SDS011;15976;47.938;7.758;2023-05-10T08:00:36;2.83;;;1.50;;
28844;SDS011;15976;47.938;7.758;2023-05-10T08:03:05;2.83;;;1.63;;
28844;SDS011;15976;47.938;7.758;2023-05-10T08:05:32;4.40;;;1.52;;
28844;SDS011;15976;47.938;7.758;2023-05-10T08:08:01;5.50;;;1.67;;
28844;SDS011;15976;47.938;7.758;2023-05-10T08:10:28;2.35;;;1.40;;
28844;SDS011;15976;47.938;7.758;2023-05-10T08:12:55;3.80;;;1.50;;
28844;SDS011;15976;47.938;7.758;2023-05-10T08:15:21;4.15;;;1.95;;
28844;SDS011;15976;47.938;7.758;2023-05-10T08:17:48;3.53;;;2.03;;
28844;SDS011;15976;47.938;7.758;2023-05-10T08:20:15;3.63;;;1.50;;
28844;SDS011;15976;47.938;7.758;2023-05-10T08:22:45;2.78;;;1.60;;
28844;SDS011;15976;47.938;7.758;2023-05-10T08:25:15;4.55;;;1.70;;
28844;SDS011;15976;47.938;7.758;2023-05-10T08:27:42;4.00;;;1.40;;
28844;SDS011;15976;47.938;7.758;2023-05-10T08:30:09;7.32;;;1.95;;
28844;SDS011;15976;47.938;7.758;2023-05-10T08:32:36;6.53;;;1.52;;
28844;SDS011;15976;47.938;7.758;2023-05-10T08:35:04;3.20;;;1.60;;
28844;SDS011;15976;47.938;7.758;2023-05-10T08:37:31;5.22;;;2.28;;
28844;SDS011;15976;47.938;7.758;2023-05-10T08:39:59;5.28;;;2.10;;
28844;SDS011;15976;47.938;7.758;2023-05-10T08:42:27;4.65;;;2.38;;
28844;SDS011;15976;47.938;7.758;2023-05-10T08:44:56;6.57;;;2.55;;
28844;SDS011;15976;47.938;7.758;2023-05-10T08:47:25;2.00;;;1.20;;
28844;SDS011;15976;47.938;7.758;2023-05-10T08:49:52;1.60;;;1.20;;
28844;SDS011;15976;47.938;7.758;2023-05-10T08:52:20;5.75;;;2.10;;
28844;SDS011;15976;47.938;7.758;2023-05-10T08:54:49;2.85;;;1.40;;
28844;SDS011;15976;47.938;7.758;2023-05-10T08:57:16;8.00;;;1.63;;
28844;SDS011;15976;47.938;7.758;2023-05-10T08:59:45;5.20;;;2.15;;
28844;SDS011;15976;47.938;7.758;2023-05-10T09:02:12;5.75;;;1.80;;
28844;SDS011;15976;47.938;7.758;2023-05-10T09:04:43;2.97;;;1.60;;
28844;SDS011;15976;47.938;7.758;2023-05-10T09:07:10;6.28;;;1.30;;
28844;SDS011;15976;47.938;7.758;2023-05-10T09:09:38;2.63;;;1.40;;
28844;SDS011;15976;47.938;7.758;2023-05-10T09:12:05;2.90;;;1.30;;
28844;SDS011;15976;47.938;7.758;2023-05-10T09:14:34;1.65;;;0.95;;
28844;SDS011;15976;47.938;7.758;2023-05-10T09:17:02;5.13;;;1.25;;
28844;SDS011;15976;47.938;7.758;2023-05-10T09:19:29;2.92;;;1.10;;
28844;SDS011;15976;47.938;7.758;2023-05-10T09:21:56;2.25;;;1.38;;
28844;SDS011;15976;47.938;7.758;2023-05-10T09:24:26;2.08;;;1.05;;
28844;SDS011;15976;47.938;7.758;2023-05-10T09:26:53;3.42;;;1.10;;
28844;SDS011;15976;47.938;7.758;2023-05-10T09:29:22;1.88;;;1.05;;
28844;SDS011;15976;47.938;7.758;2023-05-10T09:31:49;2.20;;;1.08;;
28844;SDS011;15976;47.938;7.758;2023-05-10T09:34:18;4.72;;;1.00;;
28844;SDS011;15976;47.938;7.758;2023-05-10T09:36:54;1.02;;;0.70;;
28844;SDS011;15976;47.938;7.758;2023-05-10T09:39:29;3.17;;;1.10;;
28844;SDS011;15976;47.938;7.758;2023-05-10T09:41:58;2.78;;;1.10;;
28844;SDS011;15976;47.938;7.758;2023-05-10T09:44:27;2.42;;;0.93;;
28844;SDS011;15976;47.938;7.758;2023-05-10T09:46:54;5.05;;;0.88;;
28844;SDS011;15976;47.938;7.758;2023-05-10T09:49:21;2.17;;;0.88;;
28844;SDS011;15976;47.938;7.758;2023-05-10T09:52:05;4.40;;;1.30;;
28844;SDS011;15976;47.938;7.758;2023-05-10T09:54:33;3.08;;;0.98;;
28844;SDS011;15976;47.938;7.758;2023-05-10T09:57:01;2.83;;;0.85;;
28844;SDS011;15976;47.938;7.758;2023-05-10T09:59:28;1.45;;;0.90;;
28844;SDS011;15976;47.938;7.758;2023-05-10T10:01:56;2.25;;;1.05;;
28844;SDS011;15976;47.938;7.758;2023-05-10T10:04:24;2.97;;;1.20;;
28844;SDS011;15976;47.938;7.758;2023-05-10T10:06:58;3.15;;;1.10;;
28844;SDS011;15976;47.938;7.758;2023-05-10T10:09:31;2.47;;;0.80;;
28844;SDS011;15976;47.938;7.758;2023-05-10T10:12:02;2.17;;;1.27;;
28844;SDS011;15976;47.938;7.758;2023-05-10T10:14:30;3.83;;;0.90;;
28844;SDS011;15976;47.938;7.758;2023-05-10T10:16:58;2.65;;;0.90;;
28844;SDS011;15976;47.938;7.758;2023-05-10T10:19:30;4.43;;;0.90;;
28844;SDS011;15976;47.938;7.758;2023-05-10T10:21:59;4.93;;;1.00;;
28844;SDS011;15976;47.938;7.758;2023-05-10T10:24:27;3.65;;;0.90;;
28844;SDS011;15976;47.938;7.758;2023-05-10T10:26:54;3.38;;;1.27;;
28844;SDS011;15976;47.938;7.758;2023-05-10T10:29:39;2.78;;;1.00;;
28844;SDS011;15976;47.938;7.758;2023-05-10T10:32:36;1.85;;;0.75;;
28844;SDS011;15976;47.938;7.758;2023-05-10T10:35:23;5.32;;;1.00;;
28844;SDS011;15976;47.938;7.758;2023-05-10T10:37:50;1.55;;;0.95;;
28844;SDS011;15976;47.938;7.758;2023-05-10T10:40:30;2.60;;;0.77;;
28844;SDS011;15976;47.938;7.758;2023-05-10T10:46:13;3.30;;;1.05;;
28844;SDS011;15976;47.938;7.758;2023-05-10T10:48:48;1.77;;;0.70;;
28844;SDS011;15976;47.938;7.758;2023-05-10T10:51:38;1.27;;;0.90;;
28844;SDS011;15976;47.938;7.758;2023-05-10T10:54:09;3.47;;;0.90;;
28844;SDS011;15976;47.938;7.758;2023-05-10T10:56:37;5.55;;;1.30;;
28844;SDS011;15976;47.938;7.758;2023-05-10T10:59:04;4.90;;;1.00;;
28844;SDS011;15976;47.938;7.758;2023-05-10T11:01:34;4.03;;;1.52;;
28844;SDS011;15976;47.938;7.758;2023-05-10T11:06:32;2.45;;;1.00;;
28844;SDS011;15976;47.938;7.758;2023-05-10T11:09:06;5.72;;;1.38;;
28844;SDS011;15976;47.938;7.758;2023-05-10T11:11:34;2.17;;;0.80;;
28844;SDS011;15976;47.938;7.758;2023-05-10T11:14:06;2.00;;;1.20;;
28844;SDS011;15976;47.938;7.758;2023-05-10T11:16:40;4.07;;;0.95;;
28844;SDS011;15976;47.938;7.758;2023-05-10T11:19:11;5.82;;;1.00;;
28844;SDS011;15976;47.938;7.758;2023-05-10T11:24:28;2.42;;;1.05;;
28844;SDS011;15976;47.938;7.758;2023-05-10T11:26:55;3.58;;;0.90;;
28844;SDS011;15976;47.938;7.758;2023-05-10T11:29:23;2.20;;;0.93;;
28844;SDS011;15976;47.938;7.758;2023-05-10T11:31:52;3.10;;;1.00;;
28844;SDS011;15976;47.938;7.758;2023-05-10T11:34:23;3.30;;;1.10;;
28844;SDS011;15976;47.938;7.758;2023-05-10T11:36:52;6.40;;;2.10;;
28844;SDS011;15976;47.938;7.758;2023-05-10T11:39:26;2.72;;;0.93;;
28844;SDS011;15976;47.938;7.758;2023-05-10T11:41:54;4.63;;;1.20;;
28844;SDS011;15976;47.938;7.758;2023-05-10T11:44:21;1.52;;;0.63;;
28844;SDS011;15976;47.938;7.758;2023-05-10T11:46:49;3.60;;;0.80;;
28844;SDS011;15976;47.938;7.758;2023-05-10T11:49:16;1.50;;;0.40;;
28844;SDS011;15976;47.938;7.758;2023-05-10T11:51:43;1.80;;;0.77;;
28844;SDS011;15976;47.938;7.758;2023-05-10T11:54:10;6.28;;;2.72;;
28844;SDS011;15976;47.938;7.758;2023-05-10T11:56:38;2.88;;;1.15;;
28844;SDS011;15976;47.938;7.758;2023-05-10T11:59:06;1.63;;;0.60;;
28844;SDS011;15976;47.938;7.758;2023-05-10T12:01:34;1.95;;;0.55;;
28844;SDS011;15976;47.938;7.758;2023-05-10T12:04:02;0.75;;;0.40;;
28844;SDS011;15976;47.938;7.758;2023-05-10T12:06:31;1.95;;;0.65;;
28844;SDS011;15976;47.938;7.758;2023-05-10T12:08:59;3.22;;;0.60;;
28844;SDS011;15976;47.938;7.758;2023-05-10T12:11:31;1.70;;;0.52;;
28844;SDS011;15976;47.938;7.758;2023-05-10T12:13:58;1.52;;;0.80;;
28844;SDS011;15976;47.938;7.758;2023-05-10T12:16:26;2.15;;;0.70;;
28844;SDS011;15976;47.938;7.758;2023-05-10T12:18:56;2.45;;;0.80;;
28844;SDS011;15976;47.938;7.758;2023-05-10T12:21:24;2.22;;;0.50;;
28844;SDS011;15976;47.938;7.758;2023-05-10T12:24:02;2.25;;;0.80;;
28844;SDS011;15976;47.938;7.758;2023-05-10T12:26:31;1.95;;;0.93;;
28844;SDS011;15976;47.938;7.758;2023-05-10T12:29:14;1.80;;;0.73;;
28844;SDS011;15976;47.938;7.758;2023-05-10T12:31:55;2.90;;;0.75;;
28844;SDS011;15976;47.938;7.758;2023-05-10T12:36:52;1.10;;;0.60;;
28844;SDS011;15976;47.938;7.758;2023-05-10T12:39:19;2.22;;;0.77;;
28844;SDS011;15976;47.938;7.758;2023-05-10T12:41:46;3.13;;;0.77;;
28844;SDS011;15976;47.938;7.758;2023-05-10T12:44:14;2.72;;;0.60;;
28844;SDS011;15976;47.938;7.758;2023-05-10T12:46:41;0.65;;;0.40;;
28844;SDS011;15976;47.938;7.758;2023-05-10T12:49:07;1.00;;;0.50;;
28844;SDS011;15976;47.938;7.758;2023-05-10T12:51:35;1.23;;;0.60;;
28844;SDS011;15976;47.938;7.758;2023-05-10T12:54:02;2.85;;;0.52;;
28844;SDS011;15976;47.938;7.758;2023-05-10T12:56:29;3.35;;;0.93;;
28844;SDS011;15976;47.938;7.758;2023-05-10T12:58:56;2.10;;;1.20;;
28844;SDS011;15976;47.938;7.758;2023-05-10T13:01:23;2.53;;;0.60;;
28844;SDS011;15976;47.938;7.758;2023-05-10T13:03:50;1.00;;;0.50;;
28844;SDS011;15976;47.938;7.758;2023-05-10T13:06:17;3.25;;;0.77;;
28844;SDS011;15976;47.938;7.758;2023-05-10T13:08:44;2.28;;;0.60;;
28844;SDS011;15976;47.938;7.758;2023-05-10T13:11:11;4.18;;;0.70;;
28844;SDS011;15976;47.938;7.758;2023-05-10T13:13:42;3.28;;;0.60;;
28844;SDS011;15976;47.938;7.758;2023-05-10T13:16:09;1.75;;;0.68;;
28844;SDS011;15976;47.938;7.758;2023-05-10T13:18:36;2.20;;;0.68;;
28844;SDS011;15976;47.938;7.758;2023-05-10T13:21:03;3.92;;;0.70;;
28844;SDS011;15976;47.938;7.758;2023-05-10T13:23:31;2.47;;;0.47;;
28844;SDS011;15976;47.938;7.758;2023-05-10T13:25:58;2.33;;;0.55;;
28844;SDS011;15976;47.938;7.758;2023-05-10T13:28:25;2.53;;;0.50;;
28844;SDS011;15976;47.938;7.758;2023-05-10T13:30:52;1.90;;;0.70;;
28844;SDS011;15976;47.938;7.758;2023-05-10T13:33:19;2.85;;;0.88;;
28844;SDS011;15976;47.938;7.758;2023-05-10T13:35:46;2.60;;;0.57;;
28844;SDS011;15976;47.938;7.758;2023-05-10T13:38:13;2.60;;;0.55;;
28844;SDS011;15976;47.938;7.758;2023-05-10T13:40:40;5.22;;;0.60;;
28844;SDS011;15976;47.938;7.758;2023-05-10T13:43:07;3.20;;;0.63;;
28844;SDS011;15976;47.938;7.758;2023-05-10T13:45:34;1.83;;;0.50;;
28844;SDS011;15976;47.938;7.758;2023-05-10T13:48:01;0.80;;;0.63;;
28844;SDS011;15976;47.938;7.758;2023-05-10T13:50:28;0.90;;;0.50;;
28844;SDS011;15976;47.938;7.758;2023-05-10T13:52:56;0.98;;;0.45;;
28844;SDS011;15976;47.938;7.758;2023-05-10T13:55:23;1.02;;;0.47;;
28844;SDS011;15976;47.938;7.758;2023-05-10T13:57:50;3.67;;;0.60;;
28844;SDS011;15976;47.938;7.758;2023-05-10T14:00:17;1.80;;;0.60;;
28844;SDS011;15976;47.938;7.758;2023-05-10T14:02:44;1.80;;;0.68;;
28844;SDS011;15976;47.938;7.758;2023-05-10T14:05:11;0.65;;;0.50;;
28844;SDS011;15976;47.938;7.758;2023-05-10T14:07:39;0.77;;;0.60;;
28844;SDS011;15976;47.938;7.758;2023-05-10T14:10:06;0.40;;;0.40;;
28844;SDS011;15976;47.938;7.758;2023-05-10T14:12:33;0.45;;;0.40;;
28844;SDS011;15976;47.938;7.758;2023-05-10T14:15:00;1.02;;;0.50;;
28844;SDS011;15976;47.938;7.758;2023-05-10T14:17:27;0.93;;;0.65;;
28844;SDS011;15976;47.938;7.758;2023-05-10T14:19:54;1.33;;;0.85;;
28844;SDS011;15976;47.938;7.758;2023-05-10T14:22:21;0.93;;;0.45;;
28844;SDS011;15976;47.938;7.758;2023-05-10T14:24:49;1.58;;;0.60;;
28844;SDS011;15976;47.938;7.758;2023-05-10T14:27:16;3.70;;;0.75;;
28844;SDS011;15976;47.938;7.758;2023-05-10T14:29:47;2.38;;;0.95;;
28844;SDS011;15976;47.938;7.758;2023-05-10T14:32:14;1.15;;;0.60;;
28844;SDS011;15976;47.938;7.758;2023-05-10T14:34:41;0.77;;;0.60;;
28844;SDS011;15976;47.938;7.758;2023-05-10T14:37:09;1.52;;;1.10;;
28844;SDS011;15976;47.938;7.758;2023-05-10T14:39:37;0.80;;;0.47;;
28844;SDS011;15976;47.938;7.758;2023-05-10T14:42:04;2.33;;;1.00;;
28844;SDS011;15976;47.938;7.758;2023-05-10T14:44:31;4.43;;;0.95;;
28844;SDS011;15976;47.938;7.758;2023-05-10T14:46:58;3.92;;;1.27;;
28844;SDS011;15976;47.938;7.758;2023-05-10T14:49:26;1.75;;;0.90;;
28844;SDS011;15976;47.938;7.758;2023-05-10T14:51:53;1.00;;;0.50;;
28844;SDS011;15976;47.938;7.758;2023-05-10T14:54:20;1.58;;;0.80;;
28844;SDS011;15976;47.938;7.758;2023-05-10T14:56:47;1.27;;;0.70;;
28844;SDS011;15976;47.938;7.758;2023-05-10T14:59:16;1.65;;;0.52;;
28844;SDS011;15976;47.938;7.758;2023-05-10T15:01:44;0.93;;;0.60;;
28844;SDS011;15976;47.938;7.758;2023-05-10T15:04:17;1.58;;;0.68;;
28844;SDS011;15976;47.938;7.758;2023-05-10T15:06:46;2.05;;;0.60;;
28844;SDS011;15976;47.938;7.758;2023-05-10T15:09:13;1.10;;;0.52;;
28844;SDS011;15976;47.938;7.758;2023-05-10T15:11:39;1.33;;;0.50;;
28844;SDS011;15976;47.938;7.758;2023-05-10T15:14:06;2.03;;;0.90;;
28844;SDS011;15976;47.938;7.758;2023-05-10T15:16:33;2.08;;;0.70;;
28844;SDS011;15976;47.938;7.758;2023-05-10T15:19:01;1.25;;;0.50;;
28844;SDS011;15976;47.938;7.758;2023-05-10T15:21:29;0.90;;;0.52;;
28844;SDS011;15976;47.938;7.758;2023-05-10T15:24:01;1.67;;;0.70;;
28844;SDS011;15976;47.938;7.758;2023-05-10T15:26:28;0.68;;;0.50;;
28844;SDS011;15976;47.938;7.758;2023-05-10T15:28:55;2.78;;;0.70;;
28844;SDS011;15976;47.938;7.758;2023-05-10T15:31:22;1.35;;;0.60;;
28844;SDS011;15976;47.938;7.758;2023-05-10T15:33:49;1.45;;;0.70;;
28844;SDS011;15976;47.938;7.758;2023-05-10T15:36:16;2.58;;;1.20;;